createdAt,value
2022-10-10T00:01:27.617Z,15.83
2022-10-10T00:03:56.797Z,16.23
2022-10-10T00:06:32.804Z,16.60
2022-10-10T00:09:00.429Z,16.93
2022-10-10T00:11:29.403Z,16.47
2022-10-10T00:13:56.306Z,16.80
2022-10-10T00:16:25.834Z,17.93
2022-10-10T00:18:52.583Z,17.03
2022-10-10T00:21:19.323Z,16.73
2022-10-10T00:23:46.111Z,17.80
2022-10-10T00:26:19.009Z,19.00
2022-10-10T00:28:48.676Z,17.90
2022-10-10T00:31:15.599Z,18.20
2022-10-10T00:33:44.561Z,18.17
2022-10-10T00:36:11.408Z,18.43
2022-10-10T00:38:41.038Z,17.73
2022-10-10T00:41:07.983Z,18.40
2022-10-10T00:43:34.909Z,17.67
2022-10-10T00:46:02.149Z,16.93
2022-10-10T00:48:28.886Z,18.90
2022-10-10T00:51:05.185Z,18.37
2022-10-10T00:53:52.047Z,18.90
2022-10-10T00:56:26.451Z,17.70
2022-10-10T00:58:57.271Z,17.77
2022-10-10T01:01:24.151Z,19.07
2022-10-10T01:03:59.908Z,18.47
2022-10-10T01:06:27.217Z,17.93
2022-10-10T01:08:54.305Z,18.90
2022-10-10T01:11:42.220Z,19.00
2022-10-10T01:14:30.772Z,18.13
2022-10-10T01:17:12.696Z,18.13
2022-10-10T01:19:57.963Z,18.60
2022-10-10T01:22:31.021Z,17.03
2022-10-10T01:25:14.173Z,17.50
2022-10-10T01:27:51.658Z,16.73
2022-10-10T01:30:25.444Z,17.03
2022-10-10T01:33:14.905Z,17.73
2022-10-10T01:35:54.694Z,16.73
2022-10-10T01:38:31.307Z,16.43
2022-10-10T01:41:06.019Z,17.07
2022-10-10T01:43:35.206Z,15.93
2022-10-10T01:46:12.603Z,16.30
2022-10-10T01:48:42.179Z,16.77
2022-10-10T01:51:20.878Z,16.83
2022-10-10T01:54:11.757Z,16.60
2022-10-10T01:56:47.333Z,16.23
2022-10-10T01:59:39.080Z,16.03
2022-10-10T02:02:15.180Z,16.30
2022-10-10T02:04:46.786Z,17.03
2022-10-10T02:07:23.601Z,15.40
2022-10-10T02:09:50.406Z,15.60
2022-10-10T02:12:17.136Z,17.40
2022-10-10T02:14:44.971Z,16.57
2022-10-10T02:17:14.861Z,16.60
2022-10-10T02:19:52.034Z,16.70
2022-10-10T02:22:19.442Z,15.80
2022-10-10T02:24:46.261Z,16.40
2022-10-10T02:27:34.211Z,16.80
2022-10-10T02:30:01.410Z,16.30
2022-10-10T02:32:48.182Z,17.30
2022-10-10T02:35:19.930Z,16.30
2022-10-10T02:37:49.281Z,16.30
2022-10-10T02:40:21.365Z,16.83
2022-10-10T02:42:51.538Z,16.90
2022-10-10T02:45:21.647Z,16.13
2022-10-10T02:47:48.426Z,17.13
2022-10-10T02:50:15.186Z,16.93
2022-10-10T02:52:44.450Z,17.33
2022-10-10T02:55:13.390Z,17.37
2022-10-10T02:57:42.508Z,17.20
2022-10-10T03:00:09.732Z,17.10
2022-10-10T03:02:39.078Z,17.50
2022-10-10T03:05:06.206Z,17.27
2022-10-10T03:07:33.091Z,17.10
2022-10-10T03:10:02.408Z,16.93
2022-10-10T03:12:29.152Z,16.17
2022-10-10T03:14:55.905Z,16.43
2022-10-10T03:17:23.055Z,17.47
2022-10-10T03:19:49.789Z,17.50
2022-10-10T03:22:16.723Z,18.10
2022-10-10T03:24:43.459Z,17.80
2022-10-10T03:27:10.245Z,16.60
2022-10-10T03:29:37.140Z,17.03
2022-10-10T03:32:06.058Z,16.90
2022-10-10T03:34:35.794Z,16.77
2022-10-10T03:37:02.518Z,16.20
2022-10-10T03:39:29.574Z,15.63
2022-10-10T03:41:56.413Z,16.30
2022-10-10T03:44:25.464Z,16.60
2022-10-10T03:46:55.317Z,16.70
2022-10-10T03:49:22.211Z,16.77
2022-10-10T03:51:49.051Z,15.53
2022-10-10T03:54:17.988Z,16.17
2022-10-10T03:56:44.774Z,15.17
2022-10-10T03:59:11.542Z,14.87
2022-10-10T04:01:38.357Z,14.33
2022-10-10T04:04:05.244Z,14.13
2022-10-10T04:06:32.154Z,14.80
2022-10-10T04:08:58.942Z,14.27
2022-10-10T04:11:27.937Z,14.53
2022-10-10T04:13:54.668Z,14.37
2022-10-10T04:16:21.829Z,14.07
2022-10-10T04:18:48.626Z,14.80
2022-10-10T04:21:17.986Z,13.67
2022-10-10T04:23:44.740Z,14.43
2022-10-10T04:26:11.871Z,14.00
2022-10-10T04:28:38.698Z,14.23
2022-10-10T04:31:06.179Z,14.33
2022-10-10T04:33:32.977Z,14.13
2022-10-10T04:36:01.940Z,13.90
2022-10-10T04:38:29.067Z,13.50
2022-10-10T04:40:58.337Z,13.30
2022-10-10T04:43:25.161Z,13.30
2022-10-10T04:45:52.120Z,13.83
2022-10-10T04:48:18.951Z,13.20
2022-10-10T04:50:51.771Z,14.20
2022-10-10T04:53:18.639Z,13.13
2022-10-10T04:55:47.514Z,13.27
2022-10-10T04:58:14.349Z,13.27
2022-10-10T05:00:43.638Z,13.10
2022-10-10T05:03:15.133Z,13.03
2022-10-10T05:05:44.132Z,13.57
2022-10-10T05:08:10.861Z,12.60
2022-10-10T05:10:41.392Z,12.77
2022-10-10T05:13:11.174Z,13.90
2022-10-10T05:15:38.147Z,12.67
2022-10-10T05:18:04.908Z,13.67
2022-10-10T05:20:32.194Z,12.83
2022-10-10T05:22:59.078Z,13.13
2022-10-10T05:25:25.858Z,13.13
2022-10-10T05:27:54.870Z,13.00
2022-10-10T05:30:21.647Z,12.73
2022-10-10T05:32:51.096Z,17.53
2022-10-10T05:35:20.638Z,14.90
2022-10-10T05:37:47.372Z,13.97
2022-10-10T05:40:14.230Z,13.17
2022-10-10T05:42:43.455Z,12.80
2022-10-10T05:45:10.874Z,13.10
2022-10-10T05:47:39.771Z,13.07
2022-10-10T05:50:09.422Z,13.13
2022-10-10T05:52:36.231Z,13.33
2022-10-10T05:55:03.340Z,14.03
2022-10-10T05:57:30.186Z,13.20
2022-10-10T06:00:01.666Z,14.30
2022-10-10T06:02:33.145Z,14.20
2022-10-10T06:05:04.760Z,13.70
2022-10-10T06:07:45.881Z,13.13
2022-10-10T06:10:18.522Z,12.97
2022-10-10T06:12:45.474Z,13.53
2022-10-10T06:15:12.294Z,13.63
2022-10-10T06:17:39.050Z,14.03
2022-10-10T06:20:08.349Z,14.67
2022-10-10T06:22:37.212Z,14.17
2022-10-10T06:25:04.222Z,13.33
2022-10-10T06:27:35.734Z,14.60
2022-10-10T06:30:02.498Z,13.67
2022-10-10T06:32:29.228Z,13.70
2022-10-10T06:34:56.058Z,14.43
2022-10-10T06:37:25.046Z,14.37
2022-10-10T06:39:51.895Z,13.70
2022-10-10T06:42:21.115Z,15.20
2022-10-10T06:44:47.889Z,15.07
2022-10-10T06:47:14.629Z,14.93
2022-10-10T06:49:41.499Z,15.70
2022-10-10T06:52:08.313Z,15.37
2022-10-10T06:54:36.359Z,15.43
2022-10-10T06:57:03.232Z,16.87
2022-10-10T06:59:30.361Z,15.73
2022-10-10T07:01:57.205Z,15.43
2022-10-10T07:04:24.183Z,16.97
2022-10-10T07:06:50.953Z,17.13
2022-10-10T07:09:20.346Z,17.23
2022-10-10T07:11:47.675Z,16.13
2022-10-10T07:14:16.578Z,17.30
2022-10-10T07:16:45.953Z,17.10
2022-10-10T07:19:12.751Z,16.83
2022-10-10T07:21:42.130Z,17.37
2022-10-10T07:24:13.822Z,17.67
2022-10-10T07:26:42.922Z,16.63
2022-10-10T07:29:09.817Z,17.30
2022-10-10T07:31:36.607Z,17.43
2022-10-10T07:34:03.411Z,17.13
2022-10-10T07:36:30.235Z,17.63
2022-10-10T07:38:59.521Z,17.60
2022-10-10T07:41:28.788Z,18.13
2022-10-10T07:43:58.511Z,18.43
2022-10-10T07:46:30.572Z,19.60
2022-10-10T07:48:59.941Z,19.30
2022-10-10T07:51:31.371Z,19.80
2022-10-10T07:53:58.483Z,19.67
2022-10-10T07:56:25.234Z,19.03
2022-10-10T07:58:56.716Z,18.83
2022-10-10T08:01:23.660Z,19.90
2022-10-10T08:03:50.472Z,18.83
2022-10-10T08:06:17.764Z,19.50
2022-10-10T08:08:51.725Z,18.73
2022-10-10T08:11:21.803Z,17.20
2022-10-10T08:13:49.130Z,17.63
2022-10-10T08:16:16.215Z,18.77
2022-10-10T08:18:42.987Z,19.13
2022-10-10T08:21:11.319Z,17.23
2022-10-10T08:23:38.159Z,16.77
2022-10-10T08:26:07.221Z,16.33
2022-10-10T08:28:34.604Z,15.33
2022-10-10T08:31:06.330Z,15.70
2022-10-10T08:33:33.204Z,14.37
2022-10-10T08:36:04.023Z,13.07
2022-10-10T08:38:30.836Z,14.27
2022-10-10T08:40:57.636Z,13.50
2022-10-10T08:43:40.703Z,13.00
2022-10-10T08:46:20.750Z,12.27
2022-10-10T08:48:47.932Z,12.30
2022-10-10T08:51:25.019Z,11.27
2022-10-10T08:53:55.859Z,11.80
2022-10-10T08:56:29.687Z,10.90
2022-10-10T08:59:06.322Z,10.20
2022-10-10T09:01:36.969Z,9.60
2022-10-10T09:04:23.749Z,9.07
2022-10-10T09:07:06.919Z,9.40
2022-10-10T09:09:44.257Z,10.53
2022-10-10T09:12:42.348Z,9.40
2022-10-10T09:15:31.449Z,9.47
2022-10-10T09:18:30.157Z,8.77
2022-10-10T09:21:06.444Z,8.87
2022-10-10T09:24:04.437Z,7.30
2022-10-10T09:26:34.868Z,7.47
2022-10-10T09:29:25.565Z,7.10
2022-10-10T09:32:04.202Z,6.90
2022-10-10T09:34:50.378Z,6.70
2022-10-10T09:37:42.584Z,6.47
2022-10-10T09:40:28.480Z,6.83
2022-10-10T09:42:55.488Z,7.10
2022-10-10T09:45:28.757Z,7.10
2022-10-10T09:47:58.337Z,7.03
2022-10-10T09:50:25.127Z,6.93
2022-10-10T09:52:54.421Z,6.60
2022-10-10T09:55:31.710Z,6.17
2022-10-10T09:58:01.473Z,5.33
2022-10-10T10:00:33.401Z,5.70
2022-10-10T10:03:11.397Z,5.57
2022-10-10T10:05:38.273Z,5.00
2022-10-10T10:08:05.376Z,4.77
2022-10-10T10:10:34.897Z,4.40
2022-10-10T10:13:01.718Z,4.37
2022-10-10T10:15:31.941Z,4.40
2022-10-10T10:18:19.462Z,4.17
2022-10-10T10:20:50.320Z,3.70
2022-10-10T10:23:33.000Z,3.53
2022-10-10T10:26:19.989Z,3.60
2022-10-10T10:28:47.431Z,3.13
2022-10-10T10:31:30.991Z,3.37
2022-10-10T10:34:31.348Z,2.83
2022-10-10T10:37:10.351Z,2.70
2022-10-10T10:39:51.560Z,3.00
2022-10-10T10:42:18.304Z,2.60
2022-10-10T10:45:02.093Z,2.60
2022-10-10T10:47:53.936Z,2.97
2022-10-10T10:50:36.054Z,2.33
2022-10-10T10:53:21.488Z,2.60
2022-10-10T10:56:19.104Z,2.83
2022-10-10T10:59:35.661Z,2.23
2022-10-10T11:01:58.497Z,2.60
2022-10-10T11:05:20.347Z,2.33
2022-10-10T11:07:43.967Z,2.33
2022-10-10T11:10:20.803Z,2.50
2022-10-10T11:12:56.096Z,2.40
2022-10-10T11:15:54.065Z,2.37
2022-10-10T11:18:22.338Z,2.60
2022-10-10T11:20:59.110Z,2.40
2022-10-10T11:23:30.930Z,2.43
2022-10-10T11:26:03.073Z,2.47
2022-10-10T11:28:36.020Z,2.10
2022-10-10T11:31:08.793Z,2.40
2022-10-10T11:33:44.254Z,2.17
2022-10-10T11:36:19.301Z,2.30
2022-10-10T11:39:15.217Z,2.73
2022-10-10T11:41:55.882Z,2.03
2022-10-10T11:44:25.678Z,2.10
2022-10-10T11:47:07.490Z,2.20
2022-10-10T11:49:48.477Z,2.40
2022-10-10T11:52:33.216Z,2.20
2022-10-10T11:55:06.069Z,2.37
2022-10-10T11:57:49.959Z,2.47
2022-10-10T12:00:19.730Z,2.67
2022-10-10T12:02:46.983Z,2.20
2022-10-10T12:05:27.096Z,2.33
2022-10-10T12:08:20.800Z,2.70
2022-10-10T12:11:18.504Z,3.00
2022-10-10T12:13:52.459Z,2.80
2022-10-10T12:16:21.098Z,2.37
2022-10-10T12:18:51.740Z,2.40
2022-10-10T12:21:19.745Z,2.60
2022-10-10T12:23:53.310Z,2.70
2022-10-10T12:26:22.603Z,2.53
2022-10-10T12:29:02.862Z,2.40
2022-10-10T12:31:36.197Z,2.90
2022-10-10T12:34:41.154Z,3.17
2022-10-10T12:37:14.376Z,3.10
2022-10-10T12:40:00.083Z,2.90
2022-10-10T12:42:33.593Z,2.80
2022-10-10T12:45:02.656Z,3.07
2022-10-10T12:48:04.560Z,3.10
2022-10-10T12:50:36.488Z,2.60
2022-10-10T12:53:04.975Z,2.60
2022-10-10T12:55:45.999Z,2.80
2022-10-10T12:58:33.323Z,2.80
2022-10-10T13:01:02.503Z,2.80
2022-10-10T13:03:45.886Z,2.63
2022-10-10T13:06:15.643Z,3.00
2022-10-10T13:08:42.425Z,2.80
2022-10-10T13:11:13.683Z,3.00
2022-10-10T13:13:41.426Z,2.97
2022-10-10T13:16:16.107Z,2.70
2022-10-10T13:18:53.246Z,3.03
2022-10-10T13:21:29.878Z,2.70
2022-10-10T13:24:03.707Z,2.53
2022-10-10T13:26:44.983Z,2.00
2022-10-10T13:29:25.898Z,2.30
2022-10-10T13:31:53.602Z,2.13
2022-10-10T13:34:26.417Z,2.20
2022-10-10T13:36:56.086Z,1.80
2022-10-10T13:39:23.030Z,2.07
2022-10-10T13:41:49.789Z,2.00
2022-10-10T13:44:27.673Z,2.20
2022-10-10T13:46:54.424Z,2.00
2022-10-10T13:49:28.689Z,2.27
2022-10-10T13:52:22.645Z,1.97
2022-10-10T13:54:49.520Z,1.53
2022-10-10T13:57:28.903Z,2.43
2022-10-10T14:00:07.562Z,1.60
2022-10-10T14:02:35.730Z,2.27
2022-10-10T14:05:11.766Z,2.30
2022-10-10T14:07:38.576Z,2.13
2022-10-10T14:10:08.965Z,2.10
2022-10-10T14:12:39.687Z,1.87
2022-10-10T14:15:41.817Z,1.97
2022-10-10T14:18:14.746Z,2.00
2022-10-10T14:20:41.576Z,1.70
2022-10-10T14:23:10.832Z,2.10
2022-10-10T14:25:41.042Z,1.70
2022-10-10T14:28:12.859Z,1.90
2022-10-10T14:30:41.742Z,1.63
2022-10-10T14:33:12.569Z,1.93
2022-10-10T14:35:39.318Z,2.00
2022-10-10T14:38:06.252Z,2.27
2022-10-10T14:40:34.836Z,1.90
2022-10-10T14:43:01.617Z,1.80
2022-10-10T14:45:28.401Z,2.30
2022-10-10T14:47:55.432Z,1.70
2022-10-10T14:50:27.718Z,1.90
2022-10-10T14:52:56.777Z,1.97
2022-10-10T14:55:23.595Z,2.00
2022-10-10T14:57:50.369Z,1.90
2022-10-10T15:00:21.342Z,1.80
2022-10-10T15:02:50.703Z,1.70
2022-10-10T15:05:19.940Z,2.00
2022-10-10T15:07:48.317Z,1.77
2022-10-10T15:10:34.401Z,1.80
2022-10-10T15:13:02.073Z,2.20
2022-10-10T15:15:30.996Z,2.00
2022-10-10T15:17:58.694Z,2.03
2022-10-10T15:20:30.927Z,1.70
2022-10-10T15:23:04.969Z,1.70
2022-10-10T15:25:34.062Z,1.83
2022-10-10T15:28:02.393Z,2.30
2022-10-10T15:30:29.201Z,2.47
2022-10-10T15:32:55.937Z,1.80
2022-10-10T15:35:23.457Z,2.20
2022-10-10T15:37:50.259Z,2.20
2022-10-10T15:40:23.272Z,2.30
2022-10-10T15:42:50.471Z,2.30
2022-10-10T15:45:37.317Z,2.37
2022-10-10T15:48:06.827Z,3.00
2022-10-10T15:50:39.226Z,2.90
2022-10-10T15:53:06.140Z,3.03
2022-10-10T15:55:43.150Z,2.90
2022-10-10T15:58:09.953Z,3.17
2022-10-10T16:00:40.272Z,2.90
2022-10-10T16:03:09.600Z,3.10
2022-10-10T16:05:37.699Z,3.63
2022-10-10T16:08:07.054Z,3.10
2022-10-10T16:10:41.004Z,3.40
2022-10-10T16:13:07.846Z,3.60
2022-10-10T16:15:34.737Z,3.60
2022-10-10T16:18:01.774Z,3.90
2022-10-10T16:20:28.780Z,3.40
2022-10-10T16:22:55.686Z,3.73
2022-10-10T16:25:23.297Z,3.40
2022-10-10T16:27:50.331Z,3.53
2022-10-10T16:30:17.157Z,3.47
2022-10-10T16:32:43.961Z,3.60
2022-10-10T16:35:11.224Z,4.10
2022-10-10T16:37:41.829Z,3.83
2022-10-10T16:40:09.229Z,4.10
2022-10-10T16:42:36.062Z,3.97
2022-10-10T16:45:02.864Z,3.87
2022-10-10T16:47:29.601Z,4.00
2022-10-10T16:49:56.403Z,3.77
2022-10-10T16:52:23.139Z,4.20
2022-10-10T16:54:52.588Z,4.33
2022-10-10T16:57:22.149Z,4.47
2022-10-10T16:59:48.924Z,4.13
2022-10-10T17:02:16.288Z,4.10
2022-10-10T17:04:43.043Z,3.87
2022-10-10T17:07:09.850Z,4.77
2022-10-10T17:09:36.607Z,4.47
2022-10-10T17:12:06.106Z,4.60
2022-10-10T17:14:35.416Z,4.17
2022-10-10T17:17:13.424Z,4.30
2022-10-10T17:19:40.564Z,4.83
2022-10-10T17:22:07.307Z,4.60
2022-10-10T17:24:34.046Z,4.70
2022-10-10T17:27:02.954Z,4.90
2022-10-10T17:29:29.690Z,5.33
2022-10-10T17:31:56.426Z,4.93
2022-10-10T17:34:23.201Z,4.97
2022-10-10T17:36:54.741Z,4.90
2022-10-10T17:39:21.542Z,5.67
2022-10-10T17:41:49.873Z,5.53
2022-10-10T17:44:16.840Z,5.50
2022-10-10T17:46:44.296Z,5.60
2022-10-10T17:49:11.741Z,5.43
2022-10-10T17:51:39.367Z,5.43
2022-10-10T17:54:06.622Z,6.13
2022-10-10T17:56:33.528Z,6.17
2022-10-10T17:59:01.673Z,5.60
2022-10-10T18:01:30.655Z,5.73
2022-10-10T18:03:58.194Z,6.03
2022-10-10T18:06:25.028Z,6.27
2022-10-10T18:08:52.588Z,6.27
2022-10-10T18:11:24.040Z,6.77
2022-10-10T18:13:50.984Z,7.00
2022-10-10T18:16:21.375Z,6.77
2022-10-10T18:18:51.342Z,6.63
2022-10-10T18:21:22.712Z,6.53
2022-10-10T18:23:49.896Z,7.37
2022-10-10T18:26:19.224Z,6.90
2022-10-10T18:28:46.139Z,7.60
2022-10-10T18:31:19.159Z,6.53
2022-10-10T18:33:46.144Z,7.37
2022-10-10T18:36:20.306Z,7.30
2022-10-10T18:38:49.695Z,7.07
2022-10-10T18:41:20.221Z,7.97
2022-10-10T18:43:47.348Z,8.20
2022-10-10T18:46:17.697Z,8.07
2022-10-10T18:48:50.227Z,8.43
2022-10-10T18:51:24.201Z,8.33
2022-10-10T18:53:52.354Z,9.07
2022-10-10T18:56:24.726Z,8.50
2022-10-10T18:58:55.447Z,9.40
2022-10-10T19:01:24.869Z,10.00
2022-10-10T19:03:52.360Z,9.80
2022-10-10T19:06:19.289Z,9.23
2022-10-10T19:08:46.313Z,9.20
2022-10-10T19:11:23.237Z,9.93
2022-10-10T19:13:50.144Z,10.00
2022-10-10T19:16:17.002Z,9.47
2022-10-10T19:18:43.881Z,9.90
2022-10-10T19:21:10.636Z,9.57
2022-10-10T19:23:37.625Z,9.43
2022-10-10T19:26:08.221Z,9.83
2022-10-10T19:28:37.523Z,10.30
2022-10-10T19:31:12.844Z,10.13
2022-10-10T19:33:39.909Z,10.07
2022-10-10T19:36:09.528Z,10.07
2022-10-10T19:38:39.287Z,10.13
2022-10-10T19:41:07.203Z,11.57
2022-10-10T19:43:34.148Z,9.97
2022-10-10T19:46:07.286Z,10.00
2022-10-10T19:48:34.425Z,10.17
2022-10-10T19:51:06.241Z,11.30
2022-10-10T19:53:33.698Z,10.37
2022-10-10T19:56:02.344Z,9.43
2022-10-10T19:58:29.493Z,10.63
2022-10-10T20:00:56.375Z,10.13
2022-10-10T20:03:25.748Z,10.27
2022-10-10T20:05:52.514Z,9.97
2022-10-10T20:08:20.278Z,10.77
2022-10-10T20:10:51.347Z,10.93
2022-10-10T20:13:18.099Z,10.03
2022-10-10T20:15:46.190Z,11.07
2022-10-10T20:18:13.366Z,10.93
2022-10-10T20:20:41.649Z,11.97
2022-10-10T20:23:10.988Z,10.70
2022-10-10T20:25:39.089Z,10.73
2022-10-10T20:28:06.052Z,11.70
2022-10-10T20:30:33.172Z,11.80
2022-10-10T20:33:02.421Z,11.87
2022-10-10T20:35:31.393Z,10.60
2022-10-10T20:37:58.364Z,11.93
2022-10-10T20:40:25.077Z,11.23
2022-10-10T20:42:51.845Z,11.03
2022-10-10T20:45:18.603Z,11.07
2022-10-10T20:47:45.354Z,11.40
2022-10-10T20:50:12.159Z,11.57
2022-10-10T20:52:38.902Z,11.37
2022-10-10T20:55:05.989Z,10.93
2022-10-10T20:57:35.040Z,12.30
2022-10-10T21:00:04.287Z,11.60
2022-10-10T21:02:31.065Z,11.70
2022-10-10T21:04:57.822Z,11.97
2022-10-10T21:07:24.613Z,11.07
2022-10-10T21:09:51.613Z,11.67
2022-10-10T21:12:18.519Z,12.03
2022-10-10T21:14:47.625Z,11.80
2022-10-10T21:17:14.396Z,12.17
2022-10-10T21:19:41.287Z,11.77
2022-10-10T21:22:10.518Z,11.47
2022-10-10T21:24:37.251Z,11.33
2022-10-10T21:27:06.524Z,11.30
2022-10-10T21:29:33.511Z,11.30
2022-10-10T21:32:03.050Z,11.53
2022-10-10T21:34:29.784Z,11.07
2022-10-10T21:36:56.543Z,11.07
2022-10-10T21:39:25.534Z,11.77
2022-10-10T21:41:52.648Z,11.53
2022-10-10T21:44:21.647Z,11.63
2022-10-10T21:46:48.460Z,10.57
2022-10-10T21:49:15.447Z,10.70
2022-10-10T21:51:50.473Z,10.77
2022-10-10T21:54:17.469Z,10.47
2022-10-10T21:56:44.367Z,10.73
2022-10-10T21:59:13.667Z,11.20
2022-10-10T22:01:40.539Z,10.20
2022-10-10T22:04:07.259Z,10.53
2022-10-10T22:06:34.101Z,11.03
2022-10-10T22:09:03.723Z,10.70
2022-10-10T22:11:34.279Z,9.37
2022-10-10T22:14:02.585Z,10.77
2022-10-10T22:16:30.193Z,10.13
2022-10-10T22:18:57.317Z,9.80
2022-10-10T22:21:30.436Z,9.87
2022-10-10T22:24:02.024Z,10.37
2022-10-10T22:26:31.517Z,10.00
2022-10-10T22:28:58.824Z,9.80
2022-10-10T22:31:25.681Z,9.37
2022-10-10T22:33:52.512Z,9.27
2022-10-10T22:36:21.496Z,9.43
2022-10-10T22:38:48.307Z,9.07
2022-10-10T22:41:17.602Z,9.13
2022-10-10T22:43:44.360Z,9.00
2022-10-10T22:46:11.297Z,9.27
2022-10-10T22:48:38.249Z,8.93
2022-10-10T22:51:11.821Z,8.97
2022-10-10T22:53:39.455Z,8.67
2022-10-10T22:56:06.599Z,8.97
2022-10-10T22:58:33.911Z,8.63
2022-10-10T23:01:10.363Z,8.33
2022-10-10T23:03:37.220Z,8.50
2022-10-10T23:06:04.348Z,8.53
2022-10-10T23:08:31.430Z,8.60
2022-10-10T23:10:58.311Z,8.33
2022-10-10T23:13:25.062Z,8.33
2022-10-10T23:15:51.892Z,9.23
2022-10-10T23:18:21.351Z,8.07
2022-10-10T23:20:48.731Z,8.60
2022-10-10T23:23:16.667Z,8.30
2022-10-10T23:25:44.417Z,8.57
2022-10-10T23:28:11.288Z,8.50
2022-10-10T23:30:41.077Z,9.17
2022-10-10T23:33:07.940Z,7.50
2022-10-10T23:35:34.778Z,8.40
2022-10-10T23:38:01.792Z,8.30
2022-10-10T23:40:28.559Z,8.00
2022-10-10T23:42:56.020Z,7.80
2022-10-10T23:45:22.846Z,8.33
2022-10-10T23:47:49.757Z,8.03
2022-10-10T23:50:16.591Z,8.17
2022-10-10T23:52:43.360Z,7.93
2022-10-10T23:55:10.137Z,7.80
2022-10-10T23:57:36.877Z,8.27
